createdAt,value
2019-01-11T00:00:39.066Z,53.30
2019-01-11T00:03:05.905Z,53.30
2019-01-11T00:05:32.749Z,53.40
2019-01-11T00:07:59.585Z,53.60
2019-01-11T00:10:26.426Z,53.50
2019-01-11T00:12:52.960Z,53.20
2019-01-11T00:15:19.803Z,53.40
2019-01-11T00:17:46.643Z,53.30
2019-01-11T00:20:13.196Z,53.50
2019-01-11T00:22:39.715Z,53.60
2019-01-11T00:25:06.554Z,53.40
2019-01-11T00:27:33.093Z,53.50
2019-01-11T00:29:59.628Z,53.70
2019-01-11T00:32:26.157Z,53.40
2019-01-11T00:34:53.406Z,53.30
2019-01-11T00:37:20.149Z,53.40
2019-01-11T00:39:46.681Z,53.30
2019-01-11T00:42:13.530Z,53.00
2019-01-11T00:44:40.059Z,53.30
2019-01-11T00:47:06.903Z,53.10
2019-01-11T00:49:33.435Z,53.50
2019-01-11T00:51:59.971Z,53.40
2019-01-11T00:54:26.811Z,53.30
2019-01-11T00:56:53.345Z,53.30
2019-01-11T00:59:20.189Z,53.40
2019-01-11T01:01:47.030Z,53.50
2019-01-11T01:04:13.564Z,53.40
2019-01-11T01:06:40.363Z,53.50
2019-01-11T01:09:07.255Z,53.40
2019-01-11T01:11:33.783Z,53.30
2019-01-11T01:14:00.623Z,53.60
2019-01-11T01:16:27.168Z,53.60
2019-01-11T01:18:54.000Z,53.40
2019-01-11T01:21:20.841Z,53.30
2019-01-11T01:23:47.686Z,53.50
2019-01-11T01:26:14.529Z,53.60
2019-01-11T01:28:41.366Z,53.80
2019-01-11T01:31:07.901Z,53.50
2019-01-11T01:33:34.435Z,53.50
2019-01-11T01:36:01.285Z,53.80
2019-01-11T01:38:28.103Z,53.70
2019-01-11T01:40:54.665Z,53.00
2019-01-11T01:43:21.187Z,53.50
2019-01-11T01:45:48.029Z,53.20
2019-01-11T01:48:14.870Z,53.20
2019-01-11T01:50:41.711Z,53.10
2019-01-11T01:53:08.248Z,53.10
2019-01-11T01:55:35.093Z,53.30
2019-01-11T01:58:01.622Z,53.20
2019-01-11T02:00:28.469Z,53.50
2019-01-11T02:02:55.004Z,53.60
2019-01-11T02:05:21.839Z,53.70
2019-01-11T02:07:48.681Z,53.70
2019-01-11T02:10:15.222Z,53.80
2019-01-11T02:12:41.752Z,53.40
2019-01-11T02:15:08.594Z,53.40
2019-01-11T02:17:35.142Z,53.80
2019-01-11T02:20:01.584Z,53.60
2019-01-11T02:22:28.503Z,53.70
2019-01-11T02:24:55.344Z,53.80
2019-01-11T02:27:22.189Z,53.20
2019-01-11T02:29:49.031Z,53.40
2019-01-11T02:32:15.562Z,53.60
2019-01-11T02:34:42.404Z,53.20
2019-01-11T02:37:08.937Z,53.80
2019-01-11T02:39:35.793Z,53.60
2019-01-11T02:42:03.544Z,53.60
2019-01-11T02:44:30.080Z,53.70
2019-01-11T02:46:56.615Z,53.60
2019-01-11T02:49:23.147Z,53.30
2019-01-11T02:51:49.704Z,53.60
2019-01-11T02:54:16.522Z,53.40
2019-01-11T02:56:43.058Z,52.80
2019-01-11T02:59:09.593Z,53.20
2019-01-11T03:01:36.131Z,52.20
2019-01-11T03:04:02.873Z,51.90
2019-01-11T03:06:29.813Z,51.60
2019-01-11T03:08:56.346Z,52.00
2019-01-11T03:11:22.881Z,51.70
2019-01-11T03:13:49.417Z,51.50
2019-01-11T03:16:15.948Z,51.50
2019-01-11T03:18:42.492Z,52.00
2019-01-11T03:21:09.028Z,51.40
2019-01-11T03:23:35.858Z,51.80
2019-01-11T03:26:02.681Z,51.50
2019-01-11T03:28:29.238Z,51.60
2019-01-11T03:30:56.078Z,51.30
2019-01-11T03:33:22.625Z,51.80
2019-01-11T03:35:49.456Z,51.50
2019-01-11T03:38:16.007Z,51.20
2019-01-11T03:40:42.524Z,51.30
2019-01-11T03:43:09.064Z,51.10
2019-01-11T03:45:35.607Z,51.10
2019-01-11T03:48:02.444Z,51.10
2019-01-11T03:50:28.966Z,51.00
2019-01-11T03:52:55.504Z,50.80
2019-01-11T03:55:22.361Z,51.10
2019-01-11T03:57:48.877Z,51.00
2019-01-11T04:00:15.723Z,51.10
2019-01-11T04:02:42.560Z,51.10
2019-01-11T04:05:09.402Z,51.00
2019-01-11T04:07:35.942Z,51.00
2019-01-11T04:10:02.471Z,50.70
2019-01-11T04:12:29.314Z,50.80
2019-01-11T04:14:56.157Z,50.80
2019-01-11T04:17:22.996Z,51.10
2019-01-11T04:19:49.531Z,51.00
2019-01-11T04:22:16.373Z,50.90
2019-01-11T04:24:43.217Z,51.00
2019-01-11T04:27:09.753Z,51.00
2019-01-11T04:29:36.283Z,50.80
2019-01-11T04:32:03.128Z,50.60
2019-01-11T04:34:30.487Z,50.70
2019-01-11T04:36:57.422Z,51.10
2019-01-11T04:39:24.264Z,51.00
2019-01-11T04:41:50.806Z,51.00
2019-01-11T04:44:17.338Z,50.80
2019-01-11T04:46:44.186Z,51.50
2019-01-11T04:49:11.020Z,51.40
2019-01-11T04:51:37.558Z,51.00
2019-01-11T04:54:04.087Z,50.70
2019-01-11T04:56:30.936Z,51.10
2019-01-11T04:58:57.770Z,50.80
2019-01-11T05:01:24.613Z,50.20
2019-01-11T05:03:51.459Z,50.60
2019-01-11T05:06:18.296Z,51.00
2019-01-11T05:08:44.910Z,50.70
2019-01-11T05:11:11.673Z,50.90
2019-01-11T05:13:38.217Z,50.80
2019-01-11T05:16:05.047Z,50.50
2019-01-11T05:18:31.601Z,50.40
2019-01-11T05:20:58.116Z,50.20
2019-01-11T05:23:24.956Z,50.90
2019-01-11T05:25:51.799Z,50.70
2019-01-11T05:28:18.332Z,50.40
2019-01-11T05:30:45.175Z,50.70
2019-01-11T05:33:11.710Z,51.00
2019-01-11T05:35:38.552Z,51.00
2019-01-11T05:38:05.085Z,50.50
2019-01-11T05:40:31.621Z,51.00
2019-01-11T05:42:58.461Z,50.70
2019-01-11T05:45:25.000Z,51.20
2019-01-11T05:47:51.532Z,51.40
2019-01-11T05:50:24.046Z,51.70
2019-01-11T05:52:46.442Z,51.50
2019-01-11T05:55:13.599Z,51.40
2019-01-11T05:57:40.434Z,51.60
2019-01-11T06:00:07.275Z,51.90
2019-01-11T06:02:33.823Z,52.20
2019-01-11T06:05:00.802Z,51.80
2019-01-11T06:07:27.493Z,51.90
2019-01-11T06:09:54.334Z,51.90
2019-01-11T06:12:20.870Z,51.50
2019-01-11T06:14:47.407Z,51.50
2019-01-11T06:17:13.940Z,51.70
2019-01-11T06:19:40.781Z,51.30
2019-01-11T06:22:07.315Z,51.30
2019-01-11T06:24:33.851Z,50.80
2019-01-11T06:27:00.384Z,50.60
2019-01-11T06:29:27.225Z,50.60
2019-01-11T06:31:53.763Z,51.00
2019-01-11T06:34:20.298Z,50.50
2019-01-11T06:36:47.135Z,50.70
2019-01-11T06:39:13.673Z,50.50
2019-01-11T06:41:40.204Z,50.90
2019-01-11T06:44:06.753Z,50.50
2019-01-11T06:46:33.275Z,50.80
2019-01-11T06:49:00.116Z,50.40
2019-01-11T06:51:26.961Z,50.40
2019-01-11T06:53:53.817Z,50.40
2019-01-11T06:56:20.332Z,50.30
2019-01-11T06:58:47.179Z,51.10
2019-01-11T07:01:13.709Z,50.70
2019-01-11T07:03:40.556Z,50.40
2019-01-11T07:06:07.086Z,50.50
2019-01-11T07:08:33.927Z,50.40
2019-01-11T07:11:00.776Z,50.10
2019-01-11T07:13:27.306Z,49.70
2019-01-11T07:15:54.144Z,50.40
2019-01-11T07:18:20.679Z,50.00
2019-01-11T07:20:47.583Z,49.90
2019-01-11T07:23:14.362Z,49.90
2019-01-11T07:25:40.900Z,50.30
2019-01-11T07:28:13.544Z,49.50
2019-01-11T07:30:35.815Z,49.80
2019-01-11T07:33:02.344Z,50.20
2019-01-11T07:35:28.878Z,49.70
2019-01-11T07:37:55.422Z,50.30
2019-01-11T07:40:22.254Z,50.20
2019-01-11T07:42:48.791Z,50.10
2019-01-11T07:45:15.325Z,50.20
2019-01-11T07:47:42.168Z,50.40
2019-01-11T07:50:09.021Z,50.20
2019-01-11T07:52:36.017Z,50.30
2019-01-11T07:55:02.694Z,49.50
2019-01-11T07:57:29.532Z,50.00
2019-01-11T07:59:56.376Z,49.70
2019-01-11T08:02:23.222Z,50.40
2019-01-11T08:04:50.063Z,49.60
2019-01-11T08:07:16.597Z,50.30
2019-01-11T08:09:44.287Z,49.80
2019-01-11T08:12:10.994Z,50.00
2019-01-11T08:14:37.732Z,50.50
2019-01-11T08:17:04.575Z,50.00
2019-01-11T08:19:31.109Z,49.80
2019-01-11T08:21:57.644Z,49.60
2019-01-11T08:24:24.181Z,50.00
2019-01-11T08:26:51.021Z,49.80
2019-01-11T08:29:17.862Z,49.60
2019-01-11T08:31:44.701Z,50.10
2019-01-11T08:34:11.282Z,50.00
2019-01-11T08:36:38.089Z,50.20
2019-01-11T08:39:04.918Z,50.20
2019-01-11T08:41:31.471Z,50.50
2019-01-11T08:43:58.297Z,49.70
2019-01-11T08:46:25.140Z,50.30
2019-01-11T08:48:51.978Z,50.20
2019-01-11T08:51:18.820Z,50.00
2019-01-11T08:53:45.662Z,50.30
2019-01-11T08:56:12.506Z,50.20
2019-01-11T08:58:39.038Z,50.30
2019-01-11T09:01:05.882Z,49.80
2019-01-11T09:03:32.423Z,49.90
2019-01-11T09:05:59.260Z,49.80
2019-01-11T09:08:25.792Z,49.20
2019-01-11T09:10:52.632Z,49.30
2019-01-11T09:13:19.167Z,49.10
2019-01-11T09:15:45.700Z,49.20
2019-01-11T09:18:12.545Z,49.30
2019-01-11T09:20:39.083Z,49.90
2019-01-11T09:23:05.920Z,49.90
2019-01-11T09:25:32.483Z,50.00
2019-01-11T09:27:59.382Z,50.70
2019-01-11T09:30:26.482Z,50.20
2019-01-11T09:32:53.288Z,50.30
2019-01-11T09:35:20.126Z,50.10
2019-01-11T09:37:46.976Z,50.40
2019-01-11T09:40:14.767Z,50.50
2019-01-11T09:42:41.961Z,50.60
2019-01-11T09:45:09.032Z,50.70
2019-01-11T09:47:35.882Z,50.90
2019-01-11T09:50:02.716Z,51.00
2019-01-11T09:52:29.562Z,51.20
2019-01-11T09:54:56.398Z,51.50
2019-01-11T09:57:23.240Z,51.50
2019-01-11T09:59:50.095Z,51.70
2019-01-11T10:02:16.921Z,51.90
2019-01-11T10:04:43.762Z,52.00
2019-01-11T10:07:10.297Z,51.90
2019-01-11T10:09:37.154Z,52.40
2019-01-11T10:12:03.981Z,53.10
2019-01-11T10:14:30.828Z,53.50
2019-01-11T10:16:57.358Z,55.00
2019-01-11T10:19:24.198Z,55.20
2019-01-11T10:21:52.543Z,56.00
2019-01-11T10:24:19.420Z,55.70
2019-01-11T10:26:46.262Z,56.00
2019-01-11T10:29:13.100Z,55.30
2019-01-11T10:31:39.635Z,55.50
2019-01-11T10:34:06.477Z,55.40
2019-01-11T10:36:33.329Z,55.20
2019-01-11T10:38:59.832Z,55.60
2019-01-11T10:41:26.394Z,55.60
2019-01-11T10:43:52.925Z,55.60
2019-01-11T10:46:19.457Z,55.10
2019-01-11T10:48:45.993Z,55.20
2019-01-11T10:51:12.529Z,54.90
2019-01-11T10:53:39.370Z,54.60
2019-01-11T10:56:06.208Z,54.50
2019-01-11T10:58:33.049Z,54.20
2019-01-11T11:00:59.587Z,54.40
2019-01-11T11:03:26.428Z,54.20
2019-01-11T11:05:53.277Z,54.40
2019-01-11T11:08:19.803Z,54.10
2019-01-11T11:10:46.649Z,54.30
2019-01-11T11:13:13.181Z,54.30
2019-01-11T11:15:39.714Z,54.30
2019-01-11T11:18:06.556Z,54.20
2019-01-11T11:20:33.091Z,53.80
2019-01-11T11:22:59.938Z,53.90
2019-01-11T11:25:26.621Z,53.80
2019-01-11T11:27:53.307Z,53.70
2019-01-11T11:30:20.169Z,53.50
2019-01-11T11:32:47.437Z,53.40
2019-01-11T11:35:14.143Z,53.30
2019-01-11T11:37:40.982Z,53.30
2019-01-11T11:40:07.517Z,53.50
2019-01-11T11:42:34.074Z,52.90
2019-01-11T11:45:00.595Z,52.70
2019-01-11T11:47:27.119Z,52.80
2019-01-11T11:49:53.968Z,52.60
2019-01-11T11:52:20.497Z,52.40
2019-01-11T11:54:47.033Z,52.30
2019-01-11T11:57:13.874Z,52.10
2019-01-11T11:59:40.411Z,52.20
2019-01-11T12:02:07.250Z,52.70
2019-01-11T12:04:33.781Z,52.60
2019-01-11T12:07:00.632Z,51.80
2019-01-11T12:09:27.466Z,51.80
2019-01-11T12:11:54.050Z,52.00
2019-01-11T12:14:20.841Z,51.80
2019-01-11T12:16:47.377Z,51.50
2019-01-11T12:19:13.910Z,51.50
2019-01-11T12:21:40.447Z,51.30
2019-01-11T12:24:06.978Z,51.60
2019-01-11T12:26:33.518Z,51.60
2019-01-11T12:29:00.354Z,51.50
2019-01-11T12:31:26.890Z,51.30
2019-01-11T12:33:53.737Z,51.20
2019-01-11T12:36:20.573Z,51.10
2019-01-11T12:38:47.414Z,51.20
2019-01-11T12:41:14.257Z,51.10
2019-01-11T12:43:40.793Z,51.20
2019-01-11T12:46:07.326Z,50.80
2019-01-11T12:48:33.867Z,50.90
2019-01-11T12:51:00.701Z,50.60
2019-01-11T12:53:27.554Z,51.70
2019-01-11T12:55:54.078Z,52.00
2019-01-11T12:58:20.918Z,53.30
2019-01-11T13:00:47.762Z,53.20
2019-01-11T13:03:14.298Z,53.80
2019-01-11T13:05:41.136Z,55.10
2019-01-11T13:08:07.671Z,56.10
2019-01-11T13:10:34.210Z,56.80
2019-01-11T13:13:00.744Z,57.60
2019-01-11T13:15:27.295Z,57.80
2019-01-11T13:17:53.810Z,58.10
2019-01-11T13:20:20.346Z,57.90
2019-01-11T13:22:46.878Z,57.70
2019-01-11T13:25:13.514Z,57.20
2019-01-11T13:27:40.240Z,56.70
2019-01-11T13:30:07.096Z,56.40
2019-01-11T13:32:33.630Z,55.80
2019-01-11T13:35:00.479Z,55.20
2019-01-11T13:37:27.952Z,54.50
2019-01-11T13:39:54.469Z,54.20
2019-01-11T13:42:20.996Z,54.00
2019-01-11T13:44:47.837Z,54.10
2019-01-11T13:47:14.679Z,54.20
2019-01-11T13:49:41.524Z,54.10
2019-01-11T13:52:08.081Z,54.00
2019-01-11T13:54:34.590Z,54.00
2019-01-11T13:57:01.434Z,54.00
2019-01-11T13:59:27.969Z,54.10
2019-01-11T14:01:54.808Z,54.10
2019-01-11T14:04:21.344Z,54.20
2019-01-11T14:06:48.184Z,54.10
2019-01-11T14:09:14.723Z,54.00
2019-01-11T14:11:41.259Z,54.00
2019-01-11T14:14:08.097Z,53.80
2019-01-11T14:16:34.938Z,53.70
2019-01-11T14:19:01.786Z,54.30
2019-01-11T14:21:28.398Z,54.10
2019-01-11T14:23:55.159Z,54.30
2019-01-11T14:26:22.003Z,54.00
2019-01-11T14:28:48.839Z,53.80
2019-01-11T14:31:15.687Z,53.90
2019-01-11T14:33:42.215Z,54.00
2019-01-11T14:36:09.075Z,53.90
2019-01-11T14:38:35.596Z,53.80
2019-01-11T14:41:02.432Z,53.70
2019-01-11T14:43:29.274Z,53.80
2019-01-11T14:45:56.124Z,53.70
2019-01-11T14:48:22.958Z,53.70
2019-01-11T14:50:49.799Z,53.60
2019-01-11T14:53:16.366Z,53.50
2019-01-11T14:55:43.175Z,53.70
2019-01-11T14:58:09.716Z,54.30
2019-01-11T15:00:36.249Z,53.60
2019-01-11T15:03:02.785Z,53.60
2019-01-11T15:05:29.311Z,53.80
2019-01-11T15:07:56.153Z,52.80
2019-01-11T15:10:22.688Z,52.50
2019-01-11T15:12:49.225Z,52.10
2019-01-11T15:15:15.758Z,52.00
2019-01-11T15:17:42.302Z,52.00
2019-01-11T15:20:08.930Z,52.10
2019-01-11T15:22:35.668Z,51.60
2019-01-11T15:25:02.526Z,52.00
2019-01-11T15:27:29.045Z,52.10
2019-01-11T15:29:55.533Z,52.00
2019-01-11T15:32:22.420Z,52.10
2019-01-11T15:34:49.552Z,52.10
2019-01-11T15:37:16.413Z,52.20
2019-01-11T15:39:43.253Z,52.20
2019-01-11T15:42:09.798Z,52.10
2019-01-11T15:44:36.610Z,52.20
2019-01-11T15:47:03.162Z,52.10
2019-01-11T15:49:30.004Z,52.20
2019-01-11T15:51:56.846Z,52.10
2019-01-11T15:54:23.379Z,52.10
2019-01-11T15:56:50.235Z,52.10
2019-01-11T15:59:17.070Z,52.00
2019-01-11T16:01:43.606Z,52.20
2019-01-11T16:04:10.442Z,51.80
2019-01-11T16:06:36.974Z,51.60
2019-01-11T16:09:03.512Z,51.40
2019-01-11T16:11:30.359Z,51.30
2019-01-11T16:13:56.885Z,51.60
2019-01-11T16:16:23.424Z,51.40
2019-01-11T16:18:50.263Z,51.20
2019-01-11T16:21:16.795Z,51.20
2019-01-11T16:23:43.637Z,51.20
2019-01-11T16:26:10.480Z,51.90
2019-01-11T16:28:37.331Z,51.20
2019-01-11T16:31:04.166Z,51.20
2019-01-11T16:33:30.697Z,51.10
2019-01-11T16:35:57.231Z,51.00
2019-01-11T16:38:24.073Z,51.00
2019-01-11T16:40:51.018Z,50.80
2019-01-11T16:43:17.756Z,50.80
2019-01-11T16:45:44.291Z,50.80
2019-01-11T16:48:11.135Z,51.00
2019-01-11T16:50:37.668Z,50.90
2019-01-11T16:53:04.205Z,51.00
2019-01-11T16:55:31.042Z,50.80
2019-01-11T16:57:57.885Z,50.70
2019-01-11T17:00:24.726Z,50.60
2019-01-11T17:02:51.568Z,50.70
2019-01-11T17:05:18.120Z,50.90
2019-01-11T17:07:44.638Z,50.70
2019-01-11T17:10:11.171Z,50.70
2019-01-11T17:12:41.709Z,50.50
2019-01-11T17:15:06.085Z,50.50
2019-01-11T17:17:32.925Z,50.60
2019-01-11T17:19:59.770Z,50.40
2019-01-11T17:22:26.301Z,50.40
2019-01-11T17:24:53.143Z,50.60
2019-01-11T17:27:19.682Z,50.40
2019-01-11T17:29:47.193Z,50.30
2019-01-11T17:32:14.639Z,50.50
2019-01-11T17:34:41.434Z,50.40
2019-01-11T17:37:07.974Z,50.20
2019-01-11T17:39:34.810Z,50.20
2019-01-11T17:42:01.653Z,50.20
2019-01-11T17:44:28.187Z,50.20
2019-01-11T17:46:54.721Z,50.20
2019-01-11T17:49:21.563Z,50.20
2019-01-11T17:51:48.427Z,50.20
2019-01-11T17:54:14.939Z,50.30
2019-01-11T17:56:41.780Z,50.60
2019-01-11T17:59:08.330Z,50.20
2019-01-11T18:01:35.153Z,50.40
2019-01-11T18:04:01.689Z,50.60
2019-01-11T18:06:28.534Z,50.30
2019-01-11T18:08:55.372Z,50.40
2019-01-11T18:11:21.906Z,50.40
2019-01-11T18:13:48.747Z,50.30
2019-01-11T18:16:15.289Z,50.20
2019-01-11T18:18:42.124Z,50.20
2019-01-11T18:21:08.659Z,50.00
2019-01-11T18:23:35.297Z,50.00
2019-01-11T18:26:02.038Z,50.30
2019-01-11T18:28:28.879Z,50.20
2019-01-11T18:30:55.730Z,50.20
2019-01-11T18:33:22.234Z,50.50
2019-01-11T18:35:49.142Z,50.20
2019-01-11T18:38:16.082Z,50.30
2019-01-11T18:40:42.784Z,50.10
2019-01-11T18:43:09.315Z,49.60
2019-01-11T18:45:36.155Z,49.40
2019-01-11T18:48:02.692Z,49.30
2019-01-11T18:50:29.237Z,49.00
2019-01-11T18:52:56.066Z,48.60
2019-01-11T18:55:22.604Z,48.90
2019-01-11T18:57:49.444Z,48.60
2019-01-11T19:00:15.978Z,48.70
2019-01-11T19:02:42.549Z,48.50
2019-01-11T19:05:09.352Z,48.90
2019-01-11T19:07:35.950Z,49.40
2019-01-11T19:10:02.734Z,49.50
2019-01-11T19:12:29.569Z,49.50
2019-01-11T19:14:56.745Z,49.60
2019-01-11T19:17:23.559Z,49.50
2019-01-11T19:19:50.093Z,49.40
2019-01-11T19:22:16.936Z,49.20
2019-01-11T19:24:43.777Z,49.10
2019-01-11T19:27:10.619Z,49.00
2019-01-11T19:29:37.153Z,48.90
2019-01-11T19:32:04.030Z,48.80
2019-01-11T19:34:30.538Z,49.30
2019-01-11T19:36:57.376Z,48.60
2019-01-11T19:39:24.215Z,48.70
2019-01-11T19:41:50.751Z,48.50
2019-01-11T19:44:17.592Z,48.30
2019-01-11T19:46:44.168Z,48.10
2019-01-11T19:49:10.966Z,48.10
2019-01-11T19:51:37.503Z,48.00
2019-01-11T19:54:04.034Z,48.00
2019-01-11T19:56:30.572Z,47.70
2019-01-11T19:58:57.412Z,47.80
2019-01-11T20:01:24.302Z,47.70
2019-01-11T20:03:51.105Z,47.40
2019-01-11T20:06:17.958Z,47.40
2019-01-11T20:08:44.777Z,47.50
2019-01-11T20:11:11.319Z,47.40
2019-01-11T20:13:38.160Z,47.40
2019-01-11T20:16:04.693Z,47.30
2019-01-11T20:18:31.230Z,47.30
2019-01-11T20:20:57.757Z,47.10
2019-01-11T20:23:24.601Z,47.00
2019-01-11T20:25:51.440Z,47.10
2019-01-11T20:28:17.978Z,47.00
2019-01-11T20:30:44.512Z,47.00
2019-01-11T20:33:11.353Z,46.90
2019-01-11T20:35:38.195Z,46.80
2019-01-11T20:38:04.732Z,46.70
2019-01-11T20:40:31.266Z,46.40
2019-01-11T20:42:58.105Z,46.60
2019-01-11T20:45:24.950Z,46.60
2019-01-11T20:47:51.787Z,46.50
2019-01-11T20:50:18.631Z,46.40
2019-01-11T20:52:45.471Z,46.40
2019-01-11T20:55:12.011Z,46.30
2019-01-11T20:57:38.542Z,46.40
2019-01-11T21:00:05.387Z,46.20
2019-01-11T21:02:31.917Z,46.20
2019-01-11T21:04:58.452Z,46.20
2019-01-11T21:07:24.985Z,46.20
2019-01-11T21:09:51.828Z,46.20
2019-01-11T21:12:18.360Z,46.10
2019-01-11T21:14:44.903Z,46.00
2019-01-11T21:17:11.739Z,45.80
2019-01-11T21:19:38.271Z,45.80
2019-01-11T21:22:05.112Z,46.00
2019-01-11T21:24:31.646Z,45.90
2019-01-11T21:26:58.180Z,45.80
2019-01-11T21:29:25.023Z,45.60
2019-01-11T21:31:51.866Z,45.60
2019-01-11T21:34:18.399Z,45.60
2019-01-11T21:36:44.934Z,45.60
2019-01-11T21:39:11.468Z,45.50
2019-01-11T21:41:38.310Z,45.70
2019-01-11T21:44:04.846Z,45.80
2019-01-11T21:46:31.691Z,45.80
2019-01-11T21:48:58.246Z,45.80
2019-01-11T21:51:25.061Z,45.80
2019-01-11T21:53:55.685Z,45.70
2019-01-11T21:56:19.973Z,45.70
2019-01-11T21:58:46.565Z,45.70
2019-01-11T22:01:13.350Z,45.70
2019-01-11T22:03:40.192Z,45.60
2019-01-11T22:06:07.037Z,45.70
2019-01-11T22:08:33.874Z,45.60
2019-01-11T22:11:00.717Z,45.60
2019-01-11T22:13:27.254Z,45.60
2019-01-11T22:15:53.785Z,45.60
2019-01-11T22:18:20.627Z,45.50
2019-01-11T22:20:47.478Z,45.50
2019-01-11T22:23:14.310Z,45.60
2019-01-11T22:25:40.845Z,45.40
2019-01-11T22:28:07.385Z,45.40
2019-01-11T22:30:33.915Z,45.40
2019-01-11T22:33:00.758Z,45.30
2019-01-11T22:35:27.292Z,45.30
2019-01-11T22:37:54.134Z,45.40
2019-01-11T22:40:20.667Z,45.30
2019-01-11T22:42:47.509Z,45.30
2019-01-11T22:45:14.349Z,45.20
2019-01-11T22:47:41.258Z,45.30
2019-01-11T22:50:08.038Z,45.20
2019-01-11T22:52:34.875Z,45.30
2019-01-11T22:55:01.717Z,45.20
2019-01-11T22:57:28.262Z,45.20
2019-01-11T22:59:54.785Z,45.20
2019-01-11T23:02:21.324Z,45.20
2019-01-11T23:04:48.169Z,45.20
2019-01-11T23:07:15.002Z,45.20
2019-01-11T23:09:41.897Z,45.20
2019-01-11T23:12:08.688Z,45.30
2019-01-11T23:14:35.527Z,45.20
2019-01-11T23:17:02.269Z,45.20
2019-01-11T23:19:29.218Z,45.10
2019-01-11T23:21:56.053Z,45.10
2019-01-11T23:24:22.585Z,45.20
2019-01-11T23:26:49.430Z,45.00
2019-01-11T23:29:16.270Z,44.60
2019-01-11T23:31:43.114Z,44.90
2019-01-11T23:34:09.648Z,45.00
2019-01-11T23:36:36.488Z,44.90
2019-01-11T23:39:03.332Z,45.30
2019-01-11T23:41:29.873Z,44.80
2019-01-11T23:43:56.708Z,44.80
2019-01-11T23:46:23.547Z,44.90
2019-01-11T23:48:50.389Z,44.90
2019-01-11T23:51:17.231Z,44.90
2019-01-11T23:53:44.076Z,44.90
2019-01-11T23:56:10.918Z,44.90
2019-01-11T23:58:37.448Z,44.80
